Cliffdell, Washington
Current Conditions -  °F | °C
As of 5:53 AM on Wednesday 28 Jan 2015 (Local Time) from KYKM Reporting Station
Moderate Fog Moderate Fog  
Wind Chill: 30°   Ceiling: 200
Heat Index: 30°   Visibility: 0.25mi
Dew Point: 29°   Wind: 0mph
Humidity: 96%   Direction: NA
Pressure: 30.32"   Gusts: NA
Location:  46.6628°N, 121.193°W
Report Text: KYKM 281353Z 00000KT 1/4SM R27/1600V2000FT FZFG VV002 M01/M02 A3032 RMK AO2 SLP278 I1000 T10111017
Loading
Personal Weather Stations






























Interactive Weather Map New forecast layout! Learn more

10-Day Weather Forecast

Advertisements
Track Severe Weather on mobile